Terminal Aerodrome Forecast
Issued by NWS Wilmington, NC

Home | Current Version | Previous Version | Text Only | Print | Product List | Glossary On
Versions: 1 2 3 4 5 6 7 8 9 10 11 12 13 14 15 16 17
000
FTUS42 KILM 241134
TAFFLO
TAF
KFLO 241134Z 2412/2512 23013G22KT P6SM BKN250
     FM241400 24013G22KT P6SM VCTS SCT050CB BKN150
     FM241900 24011G21KT P6SM -TSRA BKN040CB
     FM250200 25005KT P6SM VCTS OVC040CB
     FM250800 28004KT 5SM BR BKN100=

USA.gov is the U.S. government's official web portal to all federal, state and local government web resources and services.